Time;durP1;ratioP1;P1;durP2;ratioP2;P2;SDS_P1;SDS_P2;PMS_P1;PMS_P2;Temp;Humidity;BMP_temperature;BMP_pressure;BME280_temperature;BME280_humidity;BME280_pressure;Samples;Min_cycle;Max_cycle;Signal;HPM_P1;HPM_P2
2022/04/07 00:00:09;;;;;;;9.87;4.77;;;;;;;10.33;71.72;97995.28;5079234;28;20452;-71
2022/04/07 00:02:35;;;;;;;6.70;5.77;;;;;;;10.35;71.54;97993.22;5076266;28;20476;-71
2022/04/07 00:05:04;;;;;;;12.07;4.87;;;;;;;10.37;71.45;97980.50;5066544;28;20808;-73
2022/04/07 00:07:31;;;;;;;7.47;4.83;;;;;;;10.40;71.41;97979.25;5078593;28;20468;-73
2022/04/07 00:09:57;;;;;;;5.60;4.77;;;;;;;10.44;71.43;97983.22;5078318;28;20456;-73
2022/04/07 00:12:24;;;;;;;7.27;4.53;;;;;;;10.29;72.40;97972.59;5079186;28;20506;-73
2022/04/07 00:14:51;;;;;;;6.33;5.03;;;;;;;10.41;72.58;97978.25;5079238;28;20456;-74
2022/04/07 00:17:18;;;;;;;4.70;4.30;;;;;;;10.36;72.88;97976.16;5081200;28;20760;-73
2022/04/07 00:19:45;;;;;;;7.10;4.80;;;;;;;10.20;72.51;97958.56;5079322;28;20433;-72
2022/04/07 00:22:13;;;;;;;6.67;5.53;;;;;;;10.32;72.55;97973.06;5079708;28;20490;-74
2022/04/07 00:24:41;;;;;;;5.93;5.33;;;;;;;10.23;72.55;97954.69;5082331;28;20444;-73
2022/04/07 00:27:08;;;;;;;6.50;5.00;;;;;;;10.23;72.51;97946.69;5082673;28;20961;-73
2022/04/07 00:29:34;;;;;;;6.80;4.80;;;;;;;10.31;72.59;97951.84;5081434;28;20455;-74
2022/04/07 00:32:05;;;;;;;8.00;4.27;;;;;;;10.30;72.69;97945.69;5062804;28;20555;-74
2022/04/07 00:34:32;;;;;;;5.37;4.23;;;;;;;10.15;73.43;97945.78;5065140;28;20449;-75
2022/04/07 00:36:59;;;;;;;7.90;4.20;;;;;;;10.12;73.73;97934.66;5082861;28;20466;-75
2022/04/07 00:39:27;;;;;;;5.30;4.80;;;;;;;10.06;74.37;97930.94;5083125;28;20432;-74
2022/04/07 00:41:54;;;;;;;4.60;3.60;;;;;;;10.02;74.73;97943.03;5042345;28;21065;-73
2022/04/07 00:44:22;;;;;;;4.47;4.03;;;;;;;10.05;75.15;97933.81;5065066;28;20494;-75
2022/04/07 00:46:48;;;;;;;5.63;4.40;;;;;;;10.07;75.31;97942.44;5082308;28;20538;-76
2022/04/07 00:49:16;;;;;;;5.33;4.63;;;;;;;9.97;75.44;97932.13;5082910;28;20443;-74
2022/04/07 00:51:44;;;;;;;5.20;3.80;;;;;;;10.02;75.71;97928.88;5075341;28;20479;-73
2022/04/07 00:54:12;;;;;;;5.47;3.83;;;;;;;9.90;75.77;97917.91;5082870;28;20478;-73
2022/04/07 00:56:41;;;;;;;5.40;4.63;;;;;;;10.02;75.91;97911.00;5081406;28;20480;-74
2022/04/07 00:59:09;;;;;;;5.60;5.03;;;;;;;9.93;76.22;97910.34;5082764;28;20448;-74
2022/04/07 01:01:36;;;;;;;5.47;4.20;;;;;;;9.93;75.90;97896.13;5072670;28;21067;-73
2022/04/07 01:04:03;;;;;;;4.70;4.20;;;;;;;9.89;75.95;97897.56;5082853;28;20459;-75
2022/04/07 01:06:30;;;;;;;6.80;4.67;;;;;;;10.00;76.00;97905.03;5082649;28;20475;-75
2022/04/07 01:08:57;;;;;;;3.80;3.40;;;;;;;9.90;75.99;97889.34;5083503;28;21053;-74
2022/04/07 01:11:26;;;;;;;4.23;3.60;;;;;;;9.90;75.70;97892.03;5077167;28;20521;-74
2022/04/07 01:13:54;;;;;;;5.97;3.70;;;;;;;9.92;75.92;97884.66;5082400;28;20942;-74
2022/04/07 01:16:25;;;;;;;3.80;3.47;;;;;;;9.93;75.76;97883.63;5081305;28;20468;-74
2022/04/07 01:18:51;;;;;;;3.80;3.37;;;;;;;9.90;75.62;97873.34;5082182;28;20467;-73
2022/04/07 01:21:19;;;;;;;5.67;3.73;;;;;;;9.92;75.97;97865.97;5066770;28;20480;-73
2022/04/07 01:23:54;;;;;;;3.00;2.70;;;;;;;9.70;77.30;97869.69;5082336;28;20493;-74
2022/04/07 01:26:23;;;;;;;4.20;3.30;;;;;;;9.72;77.86;97848.97;5080887;28;20475;-74
2022/04/07 01:28:50;;;;;;;4.60;3.33;;;;;;;9.68;78.09;97851.22;5082151;28;21073;-73
2022/04/07 01:31:17;;;;;;;3.13;2.83;;;;;;;9.58;78.88;97851.56;5068547;28;20910;-74
2022/04/07 01:33:45;;;;;;;4.67;3.43;;;;;;;9.47;78.99;97849.41;5082007;28;20444;-73
2022/04/07 01:36:12;;;;;;;3.33;2.93;;;;;;;9.52;79.13;97841.66;5081680;28;20502;-73
2022/04/07 01:38:40;;;;;;;5.90;4.03;;;;;;;9.60;78.69;97840.72;5082385;28;20436;-74
2022/04/07 01:41:06;;;;;;;5.60;3.70;;;;;;;9.55;78.96;97830.59;5069949;28;20483;-74
2022/04/07 01:43:35;;;;;;;4.00;3.70;;;;;;;9.57;78.56;97831.22;5081385;28;20543;-73
2022/04/07 01:46:02;;;;;;;6.77;3.63;;;;;;;9.54;78.65;97817.47;5081621;28;20498;-72
2022/04/07 01:48:29;;;;;;;3.70;3.33;;;;;;;9.52;78.32;97822.19;5081854;28;20466;-71
2022/04/07 01:50:57;;;;;;;6.80;3.13;;;;;;;9.59;77.91;97823.84;5069795;28;20980;-73
2022/04/07 01:53:25;;;;;;;5.20;3.27;;;;;;;9.69;77.07;97812.84;5079079;28;20440;-73
2022/04/07 01:55:52;;;;;;;4.47;3.60;;;;;;;9.69;77.28;97815.53;5081067;28;20482;-73
2022/04/07 01:58:19;;;;;;;3.97;3.00;;;;;;;9.72;76.93;97812.47;5081689;28;20467;-72
2022/04/07 02:00:47;;;;;;;4.37;3.17;;;;;;;9.65;76.91;97805.44;5070917;28;20460;-72
2022/04/07 02:03:14;;;;;;;4.57;3.47;;;;;;;9.67;76.99;97801.56;5076589;28;20498;-71
2022/04/07 02:05:41;;;;;;;4.10;2.37;;;;;;;9.54;77.00;97782.78;5080661;28;20468;-72
2022/04/07 02:08:08;;;;;;;5.97;3.40;;;;;;;9.70;78.31;97801.16;5081246;28;20447;-73
2022/04/07 02:10:35;;;;;;;4.23;2.90;;;;;;;9.46;78.66;97796.25;5071289;28;20477;-73
2022/04/07 02:13:02;;;;;;;4.40;3.20;;;;;;;9.36;78.53;97791.28;5079337;28;20432;-73
2022/04/07 02:15:29;;;;;;;6.03;3.30;;;;;;;9.41;77.69;97768.34;5080493;28;20511;-73
2022/04/07 02:17:57;;;;;;;3.80;2.60;;;;;;;9.54;77.36;97790.78;5081368;28;20455;-73
2022/04/07 02:20:23;;;;;;;5.43;3.10;;;;;;;9.60;77.02;97785.50;5073691;28;20448;-72
2022/04/07 02:22:52;;;;;;;5.07;3.17;;;;;;;9.54;76.95;97782.78;5081091;28;20488;-75
2022/04/07 02:25:21;;;;;;;3.50;2.63;;;;;;;9.53;76.61;97778.47;5080019;28;20455;-75
2022/04/07 02:27:48;;;;;;;3.00;2.57;;;;;;;9.47;76.44;97752.59;5080649;28;20619;-73
2022/04/07 02:30:16;;;;;;;3.07;2.77;;;;;;;9.41;76.92;97763.00;5075794;28;20452;-74
2022/04/07 02:32:43;;;;;;;2.77;2.53;;;;;;;9.48;76.04;97764.88;5062464;28;20532;-73
2022/04/07 02:35:13;;;;;;;3.60;2.50;;;;;;;9.64;75.39;97742.44;5080421;28;21124;-75
2022/04/07 02:37:43;;;;;;;2.43;2.23;;;;;;;9.57;74.93;97737.88;5081025;28;20529;-73
2022/04/07 02:40:12;;;;;;;4.00;2.30;;;;;;;9.58;75.04;97739.53;5073892;28;20449;-73
2022/04/07 02:42:39;;;;;;;5.13;2.50;;;;;;;9.68;74.53;97739.16;5065799;28;20490;-74
2022/04/07 02:45:07;;;;;;;2.50;2.20;;;;;;;9.60;74.50;97739.34;5080365;28;20488;-74
2022/04/07 02:47:35;;;;;;;2.30;2.10;;;;;;;9.65;73.96;97734.22;5080205;28;20487;-74
2022/04/07 02:50:02;;;;;;;2.40;1.60;;;;;;;9.64;73.49;97734.44;5077424;28;20440;-74
2022/04/07 02:52:30;;;;;;;2.77;2.00;;;;;;;9.74;73.33;97724.22;5076152;28;20475;-73
2022/04/07 02:54:57;;;;;;;5.60;2.00;;;;;;;9.75;72.99;97717.84;5079702;28;20528;-74
2022/04/07 02:57:24;;;;;;;3.73;1.93;;;;;;;9.80;72.98;97715.41;5079530;28;20484;-74
2022/04/07 02:59:51;;;;;;;3.40;1.87;;;;;;;9.73;72.92;97710.03;5078744;28;20440;-73
2022/04/07 03:02:18;;;;;;;4.40;2.00;;;;;;;9.91;72.75;97714.88;5077638;28;20484;-73
2022/04/07 03:04:44;;;;;;;5.20;1.90;;;;;;;9.77;72.73;97702.47;5080122;28;20444;-74
2022/04/07 03:07:11;;;;;;;2.97;2.27;;;;;;;9.71;72.81;97698.75;5079806;28;20487;-74
2022/04/07 03:09:40;;;;;;;5.70;2.43;;;;;;;9.88;72.79;97709.94;5080716;28;20467;-75
2022/04/07 03:12:07;;;;;;;7.20;2.80;;;;;;;9.75;73.95;97705.34;5059512;28;21059;-74
2022/04/07 03:14:34;;;;;;;3.53;1.83;;;;;;;9.57;75.09;97689.88;5077461;28;20455;-74
2022/04/07 03:17:01;;;;;;;3.70;1.80;;;;;;;9.54;76.34;97695.59;5079449;28;20467;-75
2022/04/07 03:19:27;;;;;;;4.63;1.90;;;;;;;9.46;76.53;97681.59;5079848;28;20486;-73
2022/04/07 03:21:55;;;;;;;4.50;2.00;;;;;;;9.41;77.13;97676.88;5075941;28;20491;-73
2022/04/07 03:24:22;;;;;;;4.97;2.70;;;;;;;9.27;77.54;97657.28;5079767;28;20458;-74
2022/04/07 03:26:50;;;;;;;4.00;2.30;;;;;;;9.26;76.90;97663.63;5079110;28;20486;-73
2022/04/07 03:29:19;;;;;;;4.20;2.30;;;;;;;9.40;76.64;97662.69;5079250;28;20443;-74
2022/04/07 03:31:45;;;;;;;5.20;2.10;;;;;;;9.39;76.21;97652.22;5076983;28;20539;-75
2022/04/07 03:34:12;;;;;;;2.90;2.20;;;;;;;9.47;76.11;97660.06;5079594;28;20501;-75
2022/04/07 03:36:39;;;;;;;4.40;2.00;;;;;;;9.56;75.65;97660.72;5079154;28;20476;-72
2022/04/07 03:39:06;;;;;;;3.17;2.20;;;;;;;9.56;75.01;97666.06;5079217;28;20531;-74
2022/04/07 03:41:33;;;;;;;3.47;2.33;;;;;;;9.73;74.56;97648.69;5078401;28;20525;-74
2022/04/07 03:44:03;;;;;;;2.93;1.80;;;;;;;9.47;75.10;97644.06;5079689;28;20454;-73
2022/04/07 03:46:30;;;;;;;3.73;1.70;;;;;;;9.65;74.88;97653.38;5079026;28;20510;-74
2022/04/07 03:48:56;;;;;;;3.57;1.73;;;;;;;9.70;73.95;97649.06;5070666;28;20436;-73
2022/04/07 03:51:23;;;;;;;5.17;2.07;;;;;;;9.72;74.90;97643.53;5078955;28;20514;-75
2022/04/07 03:53:50;;;;;;;4.50;1.73;;;;;;;9.46;75.01;97628.25;5079377;28;20432;-75
2022/04/07 03:56:17;;;;;;;2.77;2.03;;;;;;;9.53;75.19;97618.44;5078160;28;20486;-76
2022/04/07 03:58:43;;;;;;;3.23;2.00;;;;;;;9.53;74.93;97626.44;5064854;28;20476;-73
2022/04/07 04:01:13;;;;;;;1.77;1.67;;;;;;;9.66;74.52;97612.34;5070906;28;20472;-73
2022/04/07 04:03:40;;;;;;;4.57;2.10;;;;;;;9.63;74.19;97613.53;5079870;28;20478;-75
2022/04/07 04:06:06;;;;;;;2.83;1.77;;;;;;;9.69;74.31;97603.94;5079207;28;20479;-75
2022/04/07 04:08:33;;;;;;;2.90;2.10;;;;;;;9.54;74.50;97593.41;5066571;28;20528;-76
2022/04/07 04:11:00;;;;;;;5.00;3.40;;;;;;;9.63;73.96;97589.53;5070002;28;20556;-74
2022/04/07 04:13:28;;;;;;;6.13;2.43;;;;;;;9.75;73.65;97595.94;5063445;28;20439;-75
2022/04/07 04:15:55;;;;;;;2.37;1.90;;;;;;;9.65;73.62;97576.81;5069128;28;21152;-73
2022/04/07 04:18:23;;;;;;;4.77;2.20;;;;;;;9.78;72.91;97571.53;5065693;28;20453;-69
2022/04/07 04:20:50;;;;;;;2.10;1.70;;;;;;;9.84;73.39;97561.06;5056998;28;21067;-69
2022/04/07 04:23:17;;;;;;;4.57;2.10;;;;;;;9.75;73.30;97571.94;5059583;28;20527;-69
2022/04/07 04:25:43;;;;;;;3.47;2.20;;;;;;;9.74;73.14;97545.47;5057869;28;20476;-69
2022/04/07 04:28:10;;;;;;;4.27;2.73;;;;;;;9.87;73.34;97556.16;5061781;28;20525;-70
2022/04/07 04:30:37;;;;;;;3.47;2.30;;;;;;;9.79;73.44;97541.16;5059418;28;20472;-69
2022/04/07 04:33:04;;;;;;;6.77;2.70;;;;;;;9.68;73.38;97531.06;5059816;28;20429;-70
2022/04/07 04:35:32;;;;;;;3.87;2.43;;;;;;;9.90;73.17;97547.75;5062236;28;20468;-70
2022/04/07 04:37:59;;;;;;;7.47;2.57;;;;;;;9.90;73.05;97552.28;5071934;28;20520;-69
2022/04/07 04:40:26;;;;;;;4.40;2.87;;;;;;;9.68;73.42;97508.91;5075868;28;20478;-69
2022/04/07 04:42:52;;;;;;;2.57;2.37;;;;;;;9.78;73.40;97518.16;5075055;28;20487;-69
2022/04/07 04:45:19;;;;;;;5.43;2.30;;;;;;;9.74;73.70;97505.47;5077959;28;20482;-69
2022/04/07 04:47:46;;;;;;;3.60;2.20;;;;;;;9.80;73.18;97502.78;5073820;28;20476;-69
2022/04/07 04:50:14;;;;;;;2.63;2.10;;;;;;;9.82;72.78;97504.44;5065050;28;20486;-69
2022/04/07 04:52:42;;;;;;;2.93;1.97;;;;;;;9.72;72.72;97502.97;5067268;28;21039;-69
2022/04/07 04:55:09;;;;;;;5.40;2.47;;;;;;;9.97;72.25;97499.72;5068858;28;20498;-69
2022/04/07 04:57:36;;;;;;;5.23;1.90;;;;;;;10.12;71.66;97478.16;5059537;28;20543;-69
2022/04/07 05:00:03;;;;;;;4.50;2.37;;;;;;;10.01;72.11;97494.78;5061973;28;20437;-70
2022/04/07 05:02:30;;;;;;;8.20;3.03;;;;;;;9.99;71.72;97497.66;5072477;28;20510;-69
2022/04/07 05:04:57;;;;;;;4.00;2.57;;;;;;;9.99;71.98;97501.16;5062357;28;20452;-69
2022/04/07 05:07:24;;;;;;;3.47;2.47;;;;;;;10.01;71.93;97489.47;5064203;28;20506;-69
2022/04/07 05:09:56;;;;;;;4.17;3.20;;;;;;;10.16;71.60;97480.22;5062335;28;20452;-69
2022/04/07 05:12:23;;;;;;;5.00;2.63;;;;;;;9.90;71.58;97474.88;5060900;28;20483;-73
2022/04/07 05:14:50;;;;;;;5.40;2.47;;;;;;;10.02;71.46;97467.91;5062082;28;20503;-71
2022/04/07 05:17:19;;;;;;;3.80;2.90;;;;;;;10.04;71.67;97459.69;5064789;28;20483;-69
2022/04/07 05:19:45;;;;;;;3.80;1.97;;;;;;;9.97;71.35;97454.34;5062306;28;20432;-71
2022/04/07 05:22:12;;;;;;;3.53;2.30;;;;;;;10.01;71.68;97447.56;5073384;28;20582;-69
2022/04/07 05:24:39;;;;;;;4.23;2.93;;;;;;;9.95;71.86;97449.22;5082134;28;20448;-70
2022/04/07 05:27:07;;;;;;;3.73;2.20;;;;;;;9.99;71.56;97450.44;5079094;28;20475;-69
2022/04/07 05:29:34;;;;;;;6.57;2.67;;;;;;;10.05;70.79;97432.78;5069019;28;20439;-69
2022/04/07 05:32:01;;;;;;;9.77;2.30;;;;;;;10.07;70.18;97438.75;5081252;28;20536;-71
2022/04/07 05:34:28;;;;;;;3.00;1.70;;;;;;;10.15;70.25;97429.69;5070924;28;20634;-69
2022/04/07 05:36:54;;;;;;;10.33;2.97;;;;;;;10.17;70.09;97428.47;5061347;28;20835;-69
2022/04/07 05:39:21;;;;;;;2.80;1.97;;;;;;;10.04;70.06;97415.13;5062358;28;20437;-69
2022/04/07 05:41:48;;;;;;;6.47;2.00;;;;;;;10.26;69.45;97418.38;5058696;28;20468;-70
2022/04/07 05:44:16;;;;;;;3.70;2.20;;;;;;;10.37;68.91;97403.59;5061796;28;20979;-69
2022/04/07 05:46:45;;;;;;;11.47;3.10;;;;;;;10.51;68.50;97399.84;5061341;28;20481;-69
2022/04/07 05:49:11;;;;;;;3.57;2.00;;;;;;;10.72;67.72;97395.25;5061192;28;20490;-70
2022/04/07 05:51:38;;;;;;;2.57;1.80;;;;;;;10.63;67.13;97391.19;5054298;28;20476;-69
2022/04/07 05:54:05;;;;;;;5.23;3.20;;;;;;;10.72;67.82;97400.63;5051881;28;20437;-70
2022/04/07 05:56:32;;;;;;;2.73;1.97;;;;;;;10.49;68.42;97387.75;5041884;28;20472;-70
2022/04/07 05:58:59;;;;;;;3.63;1.67;;;;;;;10.43;68.85;97385.91;5060225;28;20516;-70
2022/04/07 06:01:27;;;;;;;3.07;2.10;;;;;;;10.21;69.96;97377.31;5059899;28;20538;-69
2022/04/07 06:03:54;;;;;;;5.83;2.50;;;;;;;10.07;72.71;97357.81;5060679;28;20476;-70
2022/04/07 06:06:21;;;;;;;7.60;1.93;;;;;;;10.16;72.90;97356.59;5059747;28;20559;-70
2022/04/07 06:08:48;;;;;;;3.87;1.50;;;;;;;9.96;72.80;97352.13;5060066;28;20488;-69
2022/04/07 06:11:15;;;;;;;5.60;1.60;;;;;;;10.12;73.49;97353.53;5059077;28;20472;-69
2022/04/07 06:13:42;;;;;;;2.40;1.30;;;;;;;10.10;72.35;97338.72;5060430;28;20463;-69
2022/04/07 06:16:09;;;;;;;2.13;1.50;;;;;;;10.05;72.86;97327.84;5059724;28;20472;-69
2022/04/07 06:18:37;;;;;;;2.97;1.50;;;;;;;10.02;73.83;97347.78;5060191;28;20521;-69
2022/04/07 06:21:04;;;;;;;7.93;2.20;;;;;;;10.10;75.02;97341.41;5060396;28;20538;-69
2022/04/07 06:23:32;;;;;;;3.57;1.80;;;;;;;9.99;75.28;97332.19;5061540;28;20472;-70
2022/04/07 06:25:59;;;;;;;2.77;1.40;;;;;;;9.91;75.05;97324.41;5059337;28;20481;-69
2022/04/07 06:28:26;;;;;;;1.97;1.50;;;;;;;10.15;75.34;97313.03;5061441;28;20510;-69
2022/04/07 06:30:54;;;;;;;1.83;1.30;;;;;;;9.91;75.79;97308.38;5061020;28;20483;-69
2022/04/07 06:33:21;;;;;;;3.20;1.47;;;;;;;9.79;76.42;97285.03;5060993;28;20429;-69
2022/04/07 06:35:50;;;;;;;6.20;2.20;;;;;;;9.96;76.77;97271.22;5060616;28;20484;-72
2022/04/07 06:38:17;;;;;;;3.43;1.60;;;;;;;9.74;78.01;97273.34;5061476;28;20449;-69
2022/04/07 06:40:44;;;;;;;3.17;1.30;;;;;;;9.74;77.88;97254.66;5060003;28;20488;-70
2022/04/07 06:43:11;;;;;;;3.20;1.50;;;;;;;9.66;78.02;97245.03;5060971;28;20496;-70
2022/04/07 06:45:38;;;;;;;2.47;1.50;;;;;;;9.78;77.79;97232.69;5059897;28;20495;-70
2022/04/07 06:48:06;;;;;;;2.13;1.40;;;;;;;9.86;77.51;97242.31;5060616;28;20479;-70
2022/04/07 06:50:32;;;;;;;1.63;1.30;;;;;;;10.23;76.01;97228.44;5059454;28;20504;-70
2022/04/07 06:53:01;;;;;;;1.80;1.20;;;;;;;10.34;75.14;97217.09;5061173;28;20432;-70
2022/04/07 06:55:29;;;;;;;4.60;2.63;;;;;;;10.43;74.67;97209.63;5059147;28;20475;-69
2022/04/07 06:57:57;;;;;;;1.47;1.20;;;;;;;10.47;74.54;97201.00;5061213;28;20547;-69
2022/04/07 07:00:25;;;;;;;2.20;1.20;;;;;;;10.66;73.69;97204.56;5060871;28;20851;-70
2022/04/07 07:02:53;;;;;;;1.40;1.03;;;;;;;10.60;73.51;97204.63;5060761;28;20467;-70
2022/04/07 07:05:20;;;;;;;1.50;1.10;;;;;;;10.74;72.35;97187.44;5059459;28;20990;-70
2022/04/07 07:07:47;;;;;;;1.10;0.70;;;;;;;10.73;72.96;97189.31;5060462;28;20477;-70
2022/04/07 07:10:18;;;;;;;1.90;1.17;;;;;;;10.65;73.17;97180.75;5058839;28;20827;-70
2022/04/07 07:12:45;;;;;;;1.80;0.90;;;;;;;10.59;73.16;97174.41;5059524;28;20522;-70
2022/04/07 07:15:12;;;;;;;0.70;0.70;;;;;;;10.50;73.29;97157.84;5056269;28;20206;-70
2022/04/07 07:17:39;;;;;;;1.23;0.90;;;;;;;10.55;73.40;97151.81;5060644;28;20458;-69
2022/04/07 07:20:07;;;;;;;1.80;0.80;;;;;;;10.58;73.03;97161.28;5060271;28;20998;-69
2022/04/07 07:22:34;;;;;;;1.90;0.90;;;;;;;10.32;73.30;97150.53;5060574;28;20462;-71
2022/04/07 07:25:00;;;;;;;1.03;0.70;;;;;;;10.51;73.90;97148.78;5059407;28;20515;-70
2022/04/07 07:27:29;;;;;;;1.00;0.80;;;;;;;10.33;74.46;97122.81;5058849;28;20488;-69
2022/04/07 07:29:55;;;;;;;1.63;0.90;;;;;;;10.30;74.26;97127.75;5060942;28;20828;-70
2022/04/07 07:32:22;;;;;;;1.43;0.90;;;;;;;10.40;74.84;97132.63;5059689;28;20839;-70
2022/04/07 07:34:49;;;;;;;2.20;0.63;;;;;;;10.25;74.92;97120.38;5060172;28;20448;-70
2022/04/07 07:37:18;;;;;;;1.23;1.13;;;;;;;10.28;75.31;97132.47;5059238;28;20484;-70
2022/04/07 07:39:45;;;;;;;0.90;0.80;;;;;;;10.27;75.24;97117.47;5060557;28;20460;-70
2022/04/07 07:42:12;;;;;;;1.67;0.70;;;;;;;10.34;76.16;97126.28;5058733;28;20487;-70
2022/04/07 07:44:40;;;;;;;1.97;1.00;;;;;;;10.24;75.84;97113.41;5059310;28;20488;-69
2022/04/07 07:47:07;;;;;;;1.90;0.90;;;;;;;10.20;76.64;97111.38;5059787;28;20511;-69
2022/04/07 07:49:35;;;;;;;4.20;1.10;;;;;;;10.13;76.77;97108.75;5059534;28;20513;-70
2022/04/07 07:52:02;;;;;;;1.37;1.20;;;;;;;10.05;76.93;97090.31;5059357;28;20567;-70
2022/04/07 07:54:28;;;;;;;1.57;0.90;;;;;;;10.13;77.15;97104.22;5059691;28;20527;-70
2022/04/07 07:56:55;;;;;;;1.70;0.90;;;;;;;10.06;77.34;97090.09;5058918;28;20526;-70
2022/04/07 07:59:23;;;;;;;2.03;0.90;;;;;;;10.06;77.75;97087.44;5060019;28;20465;-70
2022/04/07 08:01:51;;;;;;;2.70;0.90;;;;;;;9.87;78.35;97081.16;5059673;28;20961;-70
2022/04/07 08:04:18;;;;;;;0.90;0.90;;;;;;;9.82;78.59;97072.19;5059522;28;20465;-69
2022/04/07 08:06:45;;;;;;;4.27;1.00;;;;;;;9.79;79.19;97076.09;5059297;28;20472;-69
2022/04/07 08:09:13;;;;;;;1.23;1.13;;;;;;;9.75;80.43;97080.22;5059913;28;20459;-69
2022/04/07 08:11:41;;;;;;;1.57;1.43;;;;;;;9.69;81.63;97073.09;5059270;28;20476;-70
2022/04/07 08:14:07;;;;;;;3.53;1.23;;;;;;;9.47;81.61;97064.56;5059804;28;20445;-70
2022/04/07 08:16:34;;;;;;;3.20;1.40;;;;;;;9.59;82.21;97058.34;5059414;28;20468;-70
2022/04/07 08:19:03;;;;;;;1.20;1.10;;;;;;;9.53;82.27;97053.88;5059935;28;20459;-70
2022/04/07 08:21:30;;;;;;;2.20;1.10;;;;;;;9.51;83.50;97053.28;5059529;28;20481;-69
2022/04/07 08:23:56;;;;;;;1.33;1.23;;;;;;;9.35;83.62;97030.56;5059783;28;20476;-70
2022/04/07 08:26:23;;;;;;;1.00;0.90;;;;;;;9.37;84.22;97027.69;5058214;28;20506;-70
2022/04/07 08:28:50;;;;;;;1.77;1.00;;;;;;;9.24;84.99;97025.91;5059599;28;20478;-69
2022/04/07 08:31:17;;;;;;;1.43;1.03;;;;;;;9.32;85.50;97012.34;5059254;28;20903;-69
2022/04/07 08:33:43;;;;;;;3.00;1.20;;;;;;;9.41;84.92;97015.56;5058825;28;20685;-70
2022/04/07 08:36:12;;;;;;;1.37;0.90;;;;;;;9.40;84.73;97004.06;5058581;28;20480;-69
2022/04/07 08:38:38;;;;;;;1.83;0.90;;;;;;;9.57;84.53;97016.94;5062387;28;20465;-69
2022/04/07 08:41:09;;;;;;;4.20;2.30;;;;;;;9.50;85.16;96998.28;5062232;28;20478;-69
2022/04/07 08:43:38;;;;;;;2.30;1.10;;;;;;;9.41;84.87;96984.38;5063459;28;20484;-69
2022/04/07 08:46:08;;;;;;;2.00;0.90;;;;;;;9.40;85.27;96993.41;5062501;28;20469;-69
2022/04/07 08:48:36;;;;;;;1.93;1.10;;;;;;;9.43;85.18;96984.19;5062078;28;20605;-70
2022/04/07 08:51:03;;;;;;;1.83;0.90;;;;;;;9.47;85.89;96956.03;5062624;28;20487;-69
2022/04/07 08:53:31;;;;;;;1.43;0.80;;;;;;;9.36;85.54;96960.22;5063184;28;21033;-69
2022/04/07 08:55:59;;;;;;;1.43;1.23;;;;;;;9.45;85.86;96960.78;5062353;28;20507;-70
2022/04/07 08:58:26;;;;;;;1.80;1.20;;;;;;;9.41;85.92;96940.94;5063298;28;20484;-69
2022/04/07 09:00:53;;;;;;;1.27;0.73;;;;;;;9.33;86.14;96946.50;5062883;28;20487;-70
2022/04/07 09:03:19;;;;;;;3.30;1.33;;;;;;;9.26;86.52;96943.88;5062730;28;20461;-70
2022/04/07 09:05:54;;;;;;;1.10;0.80;;;;;;;9.39;87.00;96917.13;5061723;28;20853;-69
2022/04/07 09:08:21;;;;;;;4.10;1.00;;;;;;;9.15;87.24;96908.06;5062996;28;20527;-70
2022/04/07 09:10:55;;;;;;;1.60;1.20;;;;;;;9.30;87.19;96902.41;5062027;28;20464;-70
2022/04/07 09:13:22;;;;;;;0.97;0.70;;;;;;;9.51;86.46;96887.09;5062751;28;20546;-70
2022/04/07 09:15:49;;;;;;;0.97;0.87;;;;;;;9.54;85.94;96868.00;5061710;28;20487;-70
2022/04/07 09:18:23;;;;;;;1.33;0.90;;;;;;;9.69;85.80;96878.38;5062589;28;20440;-70
2022/04/07 09:20:49;;;;;;;2.03;1.30;;;;;;;9.54;85.31;96863.47;5062287;28;20456;-69
2022/04/07 09:23:17;;;;;;;1.20;1.00;;;;;;;9.56;85.73;96864.06;5062615;28;20440;-70
2022/04/07 09:25:46;;;;;;;1.83;1.07;;;;;;;9.68;84.92;96844.72;5061145;28;20487;-69
2022/04/07 09:28:25;;;;;;;1.60;1.20;;;;;;;9.69;84.67;96811.69;5062668;28;20444;-70
2022/04/07 09:30:52;;;;;;;1.03;0.93;;;;;;;9.84;84.78;96835.31;5062268;28;20723;-70
2022/04/07 09:33:22;;;;;;;1.90;1.20;;;;;;;9.88;84.94;96829.34;5061257;28;20448;-70
2022/04/07 09:35:59;;;;;;;1.50;0.77;;;;;;;10.02;84.04;96806.00;5061745;28;20496;-70
2022/04/07 09:38:26;;;;;;;1.20;0.80;;;;;;;9.96;84.38;96777.53;5060138;28;20456;-70
2022/04/07 09:40:53;;;;;;;1.13;1.00;;;;;;;9.88;84.94;96785.84;5062032;28;20476;-70
2022/04/07 09:43:22;;;;;;;1.00;0.83;;;;;;;9.90;85.20;96797.91;5062568;28;20457;-70
2022/04/07 09:45:49;;;;;;;1.43;1.10;;;;;;;9.96;85.20;96793.53;5061388;28;20487;-70
2022/04/07 09:48:19;;;;;;;0.80;0.80;;;;;;;9.97;85.51;96797.84;5062575;28;20446;-70
2022/04/07 09:51:04;;;;;;;0.83;0.70;;;;;;;9.94;85.21;96782.28;5062443;28;20429;-71
2022/04/07 09:53:36;;;;;;;1.10;0.90;;;;;;;9.91;85.29;96794.22;5061744;28;20467;-70
2022/04/07 09:56:03;;;;;;;1.37;1.17;;;;;;;9.78;85.36;96802.34;5062180;28;20507;-70
2022/04/07 09:58:32;;;;;;;1.03;0.90;;;;;;;9.91;85.56;96815.56;5063326;28;20445;-70
2022/04/07 10:01:01;;;;;;;1.00;0.83;;;;;;;8.21;87.33;96942.16;5061665;28;20545;-70
2022/04/07 10:03:29;;;;;;;1.20;1.10;;;;;;;6.54;87.28;97010.84;5062267;28;21014;-70
2022/04/07 10:05:57;;;;;;;1.90;0.60;;;;;;;5.16;87.18;97028.75;5062276;28;21006;-70
2022/04/07 10:08:24;;;;;;;0.77;0.50;;;;;;;5.06;88.31;97033.50;5062355;28;20457;-70
2022/04/07 10:10:51;;;;;;;0.70;0.60;;;;;;;4.95;88.22;96996.91;5061902;28;20494;-70
2022/04/07 10:13:18;;;;;;;0.70;0.70;;;;;;;5.04;88.18;96991.31;5062307;28;20442;-70
2022/04/07 10:15:46;;;;;;;1.30;1.00;;;;;;;5.17;88.20;96989.84;5061319;28;20477;-70
2022/04/07 10:18:19;;;;;;;1.50;0.80;;;;;;;4.98;88.36;96992.09;5062122;28;20499;-71
2022/04/07 10:20:48;;;;;;;1.00;0.80;;;;;;;5.27;88.10;97011.53;5060109;28;20723;-70
2022/04/07 10:23:28;;;;;;;1.83;0.80;;;;;;;5.32;88.23;96985.31;5060785;28;20872;-70
2022/04/07 10:25:56;;;;;;;2.00;1.00;;;;;;;5.47;88.03;96964.09;5059629;28;20476;-70
2022/04/07 10:28:25;;;;;;;0.83;0.60;;;;;;;5.73;87.33;96944.94;5060686;28;20506;-70
2022/04/07 10:30:55;;;;;;;2.13;0.77;;;;;;;5.91;86.46;96939.16;5060213;28;20491;-70
2022/04/07 10:33:46;;;;;;;1.33;1.10;;;;;;;5.95;85.84;96923.69;5060643;28;20955;-70
2022/04/07 10:36:17;;;;;;;2.23;0.70;;;;;;;6.45;85.70;96926.28;5040000;28;20868;-71
2022/04/07 10:38:46;;;;;;;1.87;1.00;;;;;;;7.07;83.19;96914.69;5060714;28;20429;-70
2022/04/07 10:41:54;;;;;;;1.20;1.10;;;;;;;7.12;83.20;96885.69;5059509;28;20483;-70
2022/04/07 10:44:23;;;;;;;1.17;0.93;;;;;;;6.83;83.52;96899.28;5060250;28;21086;-70
2022/04/07 10:47:01;;;;;;;1.03;0.80;;;;;;;7.49;82.31;96902.06;5059927;28;20469;-70
2022/04/07 10:49:28;;;;;;;1.20;1.00;;;;;;;8.28;80.24;96891.56;5060033;28;20429;-70
2022/04/07 10:51:56;;;;;;;1.17;0.93;;;;;;;8.21;79.22;96888.09;5059610;28;20509;-70
2022/04/07 10:54:24;;;;;;;2.37;0.97;;;;;;;8.68;78.51;96880.84;5060673;28;20479;-71
2022/04/07 10:56:52;;;;;;;1.33;0.90;;;;;;;9.29;77.29;96881.28;5059297;28;20511;-70
2022/04/07 10:59:23;;;;;;;1.00;0.80;;;;;;;9.16;77.86;96882.22;5060261;28;20471;-70
2022/04/07 11:01:57;;;;;;;1.37;1.00;;;;;;;9.71;75.39;96878.97;5059269;28;20476;-70
2022/04/07 11:04:41;;;;;;;0.87;0.60;;;;;;;9.61;74.53;96896.25;5056123;28;20480;-71
2022/04/07 11:07:14;;;;;;;0.63;0.63;;;;;;;9.45;74.53;96898.66;5068130;28;20464;-70
2022/04/07 11:09:43;;;;;;;0.93;0.57;;;;;;;9.03;76.30;96910.56;5061079;28;20445;-70
2022/04/07 11:12:10;;;;;;;1.10;0.70;;;;;;;9.88;75.50;96916.59;5059957;28;20535;-71
2022/04/07 11:14:37;;;;;;;1.23;0.60;;;;;;;11.01;72.09;96933.31;5061901;28;20437;-70
2022/04/07 11:17:09;;;;;;;0.70;0.63;;;;;;;9.86;72.65;96930.13;5057786;28;20480;-70
2022/04/07 11:19:44;;;;;;;0.60;0.50;;;;;;;9.32;75.88;96934.19;5074376;28;20433;-70
2022/04/07 11:22:12;;;;;;;0.87;0.67;;;;;;;9.07;77.13;96937.59;5047669;28;21058;-70
2022/04/07 11:24:43;;;;;;;1.20;0.90;;;;;;;9.20;77.26;96942.03;5041451;28;20540;-70
2022/04/07 11:27:35;;;;;;;1.43;0.80;;;;;;;8.95;77.77;96942.78;5039473;28;20513;-70
2022/04/07 11:30:09;;;;;;;1.00;0.90;;;;;;;8.81;77.71;96943.88;5052471;28;20484;-71
2022/04/07 11:32:38;;;;;;;1.03;0.93;;;;;;;9.30;77.32;96939.72;5060710;28;20455;-70
2022/04/07 11:35:15;;;;;;;2.67;1.00;;;;;;;10.05;73.80;96941.69;5060448;28;20505;-71
2022/04/07 11:37:43;;;;;;;1.73;1.20;;;;;;;9.53;75.76;96938.34;5061121;28;20457;-70
2022/04/07 11:40:10;;;;;;;1.87;0.97;;;;;;;9.14;76.53;96943.72;5061213;28;20432;-68
2022/04/07 11:42:38;;;;;;;2.40;1.57;;;;;;;9.69;76.96;96947.72;5072176;28;20460;-69